Time;durP1;ratioP1;P1;durP2;ratioP2;P2;SDS_P1;SDS_P2;PMS_P1;PMS_P2;Temp;Humidity;BMP_temperature;BMP_pressure;BME280_temperature;BME280_humidity;BME280_pressure;Samples;Min_cycle;Max_cycle;Signal;HPM_P1;HPM_P2
2022/10/05 00:01:27;;;;;;;6.43;1.52;;;18.40;99.90;;;;;;5084849;28;20199;-76
2022/10/05 00:04:03;;;;;;;4.38;1.35;;;18.50;99.90;;;;;;5084941;28;20274;-76
2022/10/05 00:06:34;;;;;;;5.72;1.23;;;18.40;99.90;;;;;;5099415;28;20205;-76
2022/10/05 00:09:12;;;;;;;9.57;1.60;;;18.40;99.90;;;;;;5102029;28;20199;-76
2022/10/05 00:11:45;;;;;;;9.02;1.40;;;18.30;99.90;;;;;;5081488;28;20200;-75
2022/10/05 00:14:21;;;;;;;6.88;1.40;;;18.30;99.90;;;;;;5085734;28;20310;-76
2022/10/05 00:16:51;;;;;;;8.55;1.25;;;18.40;99.90;;;;;;5095955;28;20235;-76
2022/10/05 00:19:27;;;;;;;5.40;1.25;;;18.30;99.90;;;;;;5079843;28;20195;-76
2022/10/05 00:22:00;;;;;;;7.28;1.63;;;18.40;99.90;;;;;;5093526;28;20208;-76
2022/10/05 00:24:32;;;;;;;5.10;1.40;;;18.20;99.90;;;;;;5092505;28;20195;-76
2022/10/05 00:27:20;;;;;;;7.35;1.42;;;18.30;99.90;;;;;;5094764;28;20218;-76
2022/10/05 00:29:54;;;;;;;6.13;1.33;;;18.30;99.90;;;;;;5089490;28;20278;-76
2022/10/05 00:32:25;;;;;;;7.22;1.23;;;18.30;99.90;;;;;;5092955;28;20190;-76
2022/10/05 00:34:56;;;;;;;6.78;1.45;;;18.20;99.90;;;;;;5080595;28;20206;-76
2022/10/05 00:37:27;;;;;;;4.55;1.60;;;18.10;99.90;;;;;;5091520;28;20223;-76
2022/10/05 00:39:57;;;;;;;6.88;1.50;;;18.10;99.90;;;;;;5087489;28;20207;-75
2022/10/05 00:42:42;;;;;;;7.38;1.58;;;18.10;99.90;;;;;;5087636;28;20198;-76
2022/10/05 00:45:17;;;;;;;5.45;1.35;;;18.10;99.90;;;;;;5080640;28;20195;-76
2022/10/05 00:47:59;;;;;;;8.82;1.90;;;18.10;99.90;;;;;;5098671;28;20663;-76
2022/10/05 00:50:59;;;;;;;9.20;1.90;;;18.10;99.90;;;;;;5093504;28;20195;-76
2022/10/05 00:53:41;;;;;;;9.02;1.70;;;18.00;99.90;;;;;;5085088;28;20199;-76
2022/10/05 00:56:25;;;;;;;9.52;1.85;;;17.90;99.90;;;;;;5092964;28;20231;-76
2022/10/05 00:59:09;;;;;;;5.38;1.45;;;17.90;99.90;;;;;;5075793;28;20202;-76
2022/10/05 01:01:45;;;;;;;12.73;2.42;;;17.90;99.90;;;;;;5086834;28;20211;-76
2022/10/05 01:04:22;;;;;;;7.72;1.75;;;18.00;99.90;;;;;;5093834;28;20196;-77
2022/10/05 01:07:05;;;;;;;7.43;1.60;;;17.90;99.90;;;;;;5093034;28;20206;-76
2022/10/05 01:09:46;;;;;;;8.45;1.60;;;18.00;99.90;;;;;;5086122;28;20195;-78
2022/10/05 01:12:24;;;;;;;11.13;2.10;;;18.10;99.90;;;;;;5091604;28;20273;-77
2022/10/05 01:15:04;;;;;;;8.38;1.92;;;18.10;99.90;;;;;;5089542;28;20231;-77
2022/10/05 01:17:41;;;;;;;11.90;2.08;;;18.10;99.90;;;;;;5091756;28;20298;-76
2022/10/05 01:20:32;;;;;;;7.90;1.45;;;18.20;99.90;;;;;;5087580;28;20665;-76
2022/10/05 01:23:34;;;;;;;11.18;2.20;;;18.10;99.90;;;;;;5072656;28;20200;-76
2022/10/05 01:26:20;;;;;;;9.27;2.15;;;18.10;99.90;;;;;;5085192;28;20190;-76
2022/10/05 01:28:59;;;;;;;9.45;1.90;;;18.20;99.90;;;;;;5085937;28;20210;-75
2022/10/05 01:31:39;;;;;;;12.45;2.60;;;18.20;99.90;;;;;;5090896;28;20206;-76
2022/10/05 01:34:18;;;;;;;12.93;2.53;;;18.10;99.90;;;;;;5090792;28;20236;-76
2022/10/05 01:36:57;;;;;;;13.40;2.60;;;18.00;99.90;;;;;;5083827;28;20230;-75
2022/10/05 01:39:36;;;;;;;11.57;2.40;;;17.80;99.90;;;;;;5092120;28;20195;-77
2022/10/05 01:42:17;;;;;;;13.57;2.05;;;17.50;99.90;;;;;;5094171;28;20195;-77
2022/10/05 01:44:58;;;;;;;9.93;1.67;;;17.30;99.90;;;;;;5087159;28;20199;-75
2022/10/05 01:47:34;;;;;;;9.32;1.77;;;17.10;99.90;;;;;;5091195;28;20198;-76
2022/10/05 01:50:10;;;;;;;9.95;1.88;;;16.90;99.90;;;;;;5091899;28;20191;-76
2022/10/05 01:52:53;;;;;;;6.15;1.63;;;16.80;99.90;;;;;;5101595;28;20194;-75
2022/10/05 01:55:30;;;;;;;7.80;1.75;;;16.90;99.90;;;;;;5085099;28;20195;-75
2022/10/05 01:58:12;;;;;;;9.65;2.05;;;17.00;99.90;;;;;;5089860;28;20238;-76
2022/10/05 02:00:53;;;;;;;8.40;1.85;;;17.10;99.90;;;;;;5083240;28;20620;-75
2022/10/05 02:03:28;;;;;;;11.38;2.33;;;17.20;99.90;;;;;;5090121;28;20672;-74
2022/10/05 02:06:03;;;;;;;7.72;2.08;;;17.20;99.90;;;;;;5085478;28;20194;-77
2022/10/05 02:08:38;;;;;;;13.90;2.47;;;17.30;99.90;;;;;;5072735;28;20195;-77
2022/10/05 02:11:12;;;;;;;10.43;2.50;;;17.30;99.90;;;;;;5081403;28;20227;-76
2022/10/05 02:13:44;;;;;;;16.73;2.92;;;17.40;99.90;;;;;;5079535;28;20288;-77
2022/10/05 02:16:22;;;;;;;12.93;2.83;;;17.40;99.90;;;;;;5086843;28;20215;-76
2022/10/05 02:18:55;;;;;;;18.52;2.72;;;17.40;99.90;;;;;;5083258;28;20207;-76
2022/10/05 02:21:27;;;;;;;7.63;2.08;;;17.60;99.90;;;;;;5093096;28;20191;-76
2022/10/05 02:24:04;;;;;;;13.95;2.30;;;17.60;99.90;;;;;;5100164;28;20223;-76
2022/10/05 02:26:37;;;;;;;10.02;2.60;;;17.70;99.90;;;;;;5100811;28;20183;-76
2022/10/05 02:29:13;;;;;;;9.10;2.35;;;17.70;99.90;;;;;;5087110;28;20197;-76
2022/10/05 02:31:50;;;;;;;10.90;2.30;;;17.80;99.90;;;;;;5100249;28;20198;-76
2022/10/05 02:34:25;;;;;;;11.18;2.33;;;17.90;99.90;;;;;;5101515;28;20199;-76
2022/10/05 02:37:13;;;;;;;14.23;2.33;;;17.90;99.90;;;;;;5098823;28;20219;-76
2022/10/05 02:39:54;;;;;;;17.42;2.85;;;17.90;99.90;;;;;;5092673;28;20258;-77
2022/10/05 02:42:31;;;;;;;8.70;1.90;;;17.80;99.90;;;;;;5103148;28;20252;-77
2022/10/05 02:45:12;;;;;;;11.90;2.10;;;17.90;99.90;;;;;;5099038;28;20282;-77
2022/10/05 02:47:53;;;;;;;8.10;1.90;;;17.80;99.90;;;;;;5091688;28;20219;-76
2022/10/05 02:50:31;;;;;;;12.52;2.17;;;17.90;99.90;;;;;;5103332;28;20192;-76
2022/10/05 02:53:19;;;;;;;13.32;2.30;;;17.90;99.90;;;;;;5101257;28;20301;-74
2022/10/05 02:56:02;;;;;;;13.13;2.00;;;17.90;99.90;;;;;;5100428;28;20205;-75
2022/10/05 02:58:43;;;;;;;12.77;2.45;;;17.90;99.90;;;;;;5097069;28;20231;-75
2022/10/05 03:01:21;;;;;;;11.68;2.08;;;17.80;99.90;;;;;;5086176;28;20232;-76
2022/10/05 03:04:01;;;;;;;4.82;1.48;;;17.70;99.90;;;;;;5091277;28;21036;-75
2022/10/05 03:06:36;;;;;;;9.40;1.50;;;17.70;99.90;;;;;;5077433;28;20201;-75
2022/10/05 03:09:08;;;;;;;9.90;1.42;;;17.60;99.90;;;;;;5080649;28;20641;-77
2022/10/05 03:11:48;;;;;;;8.23;1.50;;;17.60;99.90;;;;;;5083939;28;20694;-76
2022/10/05 03:14:26;;;;;;;10.80;1.88;;;17.60;99.90;;;;;;5087848;28;20230;-76
2022/10/05 03:17:07;;;;;;;10.82;1.63;;;17.70;99.90;;;;;;5083835;28;20222;-76
2022/10/05 03:19:50;;;;;;;11.52;2.63;;;17.60;99.90;;;;;;5089648;28;20199;-75
2022/10/05 03:22:30;;;;;;;7.53;1.52;;;17.60;99.90;;;;;;5091119;28;20196;-75
2022/10/05 03:25:19;;;;;;;7.10;1.27;;;17.70;99.90;;;;;;5085721;28;20198;-76
2022/10/05 03:27:56;;;;;;;8.45;1.58;;;17.70;99.90;;;;;;5074200;28;20207;-75
2022/10/05 03:30:29;;;;;;;12.32;2.30;;;17.90;99.90;;;;;;5083109;28;20206;-77
2022/10/05 03:33:08;;;;;;;11.45;1.95;;;17.80;99.90;;;;;;5088538;28;20202;-77
2022/10/05 03:35:52;;;;;;;5.75;1.75;;;17.90;99.90;;;;;;5090935;28;20598;-77
2022/10/05 03:38:32;;;;;;;11.10;2.28;;;17.80;99.90;;;;;;5091373;28;20276;-76
2022/10/05 03:41:10;;;;;;;9.20;1.60;;;17.80;99.90;;;;;;5073725;28;20666;-76
2022/10/05 03:44:07;;;;;;;6.55;1.60;;;17.80;99.90;;;;;;5079391;28;20205;-76
2022/10/05 03:46:50;;;;;;;11.02;1.63;;;17.70;99.90;;;;;;5084961;28;20209;-75
2022/10/05 03:49:30;;;;;;;11.73;1.98;;;17.80;99.90;;;;;;5090371;28;20227;-75
2022/10/05 03:52:08;;;;;;;10.82;2.28;;;17.80;99.90;;;;;;5077794;28;20607;-75
2022/10/05 03:54:42;;;;;;;9.00;2.10;;;17.90;99.90;;;;;;5088413;28;20196;-75
2022/10/05 03:57:16;;;;;;;14.98;2.20;;;17.90;99.90;;;;;;5094430;28;20564;-75
2022/10/05 03:59:56;;;;;;;7.95;1.95;;;17.90;99.90;;;;;;5083807;28;20196;-75
2022/10/05 04:02:30;;;;;;;11.35;2.10;;;17.80;99.90;;;;;;5094606;28;20685;-75
2022/10/05 04:05:07;;;;;;;10.93;2.03;;;17.70;99.90;;;;;;5095675;28;20198;-75
2022/10/05 04:07:45;;;;;;;12.00;2.28;;;17.70;99.90;;;;;;5094737;28;20207;-75
2022/10/05 04:10:21;;;;;;;13.93;2.45;;;17.70;99.90;;;;;;5103653;28;20221;-75
2022/10/05 04:12:59;;;;;;;11.63;2.08;;;17.70;99.90;;;;;;5100794;28;20223;-75
2022/10/05 04:15:37;;;;;;;11.43;2.25;;;17.60;99.90;;;;;;5096345;28;20226;-76
2022/10/05 04:18:17;;;;;;;8.15;1.63;;;17.50;99.90;;;;;;5101169;28;20287;-75
2022/10/05 04:20:54;;;;;;;11.00;1.92;;;17.40;99.90;;;;;;5083419;28;20214;-76
2022/10/05 04:23:46;;;;;;;12.57;2.47;;;17.40;99.90;;;;;;5088186;28;20210;-75
2022/10/05 04:26:21;;;;;;;10.65;2.35;;;17.20;99.90;;;;;;5098167;28;20264;-75
2022/10/05 04:29:02;;;;;;;11.30;2.28;;;17.20;99.90;;;;;;5107483;28;20195;-77
2022/10/05 04:31:53;;;;;;;13.57;2.20;;;17.10;99.90;;;;;;5104446;28;20226;-76
2022/10/05 04:34:45;;;;;;;15.90;2.65;;;17.10;99.90;;;;;;5093082;28;20658;-76
2022/10/05 04:37:23;;;;;;;14.27;2.55;;;17.10;99.90;;;;;;5087313;28;20223;-75
2022/10/05 04:40:23;;;;;;;12.32;2.20;;;17.20;99.90;;;;;;5088541;28;20192;-75
2022/10/05 04:43:08;;;;;;;13.73;2.00;;;17.20;99.90;;;;;;5086798;28;20235;-75
2022/10/05 04:45:57;;;;;;;9.27;1.92;;;17.20;99.90;;;;;;5096363;28;20192;-76
2022/10/05 04:48:53;;;;;;;11.68;2.00;;;17.20;99.90;;;;;;5103787;28;20195;-75
2022/10/05 04:51:41;;;;;;;7.60;1.70;;;17.10;99.90;;;;;;5105036;28;20263;-73
2022/10/05 04:54:23;;;;;;;14.20;1.95;;;17.10;99.90;;;;;;5093609;28;20652;-75
2022/10/05 04:57:15;;;;;;;9.05;1.70;;;17.00;99.90;;;;;;5106066;28;20179;-81
2022/10/05 05:00:09;;;;;;;12.75;2.20;;;17.10;99.90;;;;;;5104306;28;20203;-76
2022/10/05 05:02:53;;;;;;;9.50;2.00;;;17.10;99.90;;;;;;5084490;28;20196;-76
2022/10/05 05:05:36;;;;;;;12.10;2.40;;;17.10;99.90;;;;;;5099792;28;20192;-75
2022/10/05 05:08:17;;;;;;;11.25;2.00;;;17.10;99.90;;;;;;5098387;28;20234;-75
2022/10/05 05:11:04;;;;;;;11.30;2.20;;;17.10;99.90;;;;;;5103127;28;20199;-76
2022/10/05 05:14:01;;;;;;;13.18;2.38;;;17.00;99.90;;;;;;5109136;28;20662;-75
2022/10/05 05:16:37;;;;;;;12.65;2.17;;;17.00;99.90;;;;;;5055283;28;20291;-75
2022/10/05 05:19:38;;;;;;;14.75;2.30;;;17.00;99.90;;;;;;5087233;28;20247;-76
2022/10/05 05:22:18;;;;;;;11.43;2.53;;;17.00;99.90;;;;;;5090133;28;20205;-75
2022/10/05 05:25:03;;;;;;;12.57;2.40;;;17.00;99.90;;;;;;5096569;28;20192;-75
2022/10/05 05:27:43;;;;;;;16.17;2.38;;;17.10;99.90;;;;;;5082754;28;20238;-75
2022/10/05 05:30:23;;;;;;;13.38;2.40;;;17.00;99.90;;;;;;5092433;28;20191;-75
2022/10/05 05:33:11;;;;;;;11.85;2.30;;;17.10;99.90;;;;;;5100485;28;20195;-76
2022/10/05 05:36:07;;;;;;;12.80;2.65;;;17.10;99.90;;;;;;5102772;28;20191;-76
2022/10/05 05:38:40;;;;;;;11.10;2.22;;;17.00;99.90;;;;;;5092954;28;20215;-75
2022/10/05 05:41:15;;;;;;;14.93;2.50;;;17.00;99.90;;;;;;5098236;28;20196;-76
2022/10/05 05:43:55;;;;;;;15.70;2.80;;;17.00;99.90;;;;;;5101368;28;20191;-76
2022/10/05 05:46:32;;;;;;;13.20;2.42;;;17.00;99.90;;;;;;5102634;28;20197;-75
2022/10/05 05:49:15;;;;;;;11.55;2.40;;;17.10;99.90;;;;;;5103684;28;20203;-76
2022/10/05 05:51:52;;;;;;;16.95;2.45;;;17.00;99.90;;;;;;5093841;28;20223;-76
2022/10/05 05:54:32;;;;;;;16.27;2.38;;;17.00;99.90;;;;;;5088867;28;20198;-75
2022/10/05 05:57:14;;;;;;;14.32;2.50;;;17.00;99.90;;;;;;5087749;28;20205;-75
2022/10/05 06:00:02;;;;;;;18.65;2.60;;;17.00;99.90;;;;;;5081118;28;20200;-75
2022/10/05 06:02:40;;;;;;;12.18;2.15;;;17.00;99.90;;;;;;5091157;28;20199;-75
2022/10/05 06:05:25;;;;;;;17.48;2.42;;;16.80;99.90;;;;;;5082101;28;20227;-76
2022/10/05 06:07:57;;;;;;;12.90;1.95;;;16.90;99.90;;;;;;5087609;28;20274;-76
2022/10/05 06:10:36;;;;;;;14.02;2.38;;;16.80;99.90;;;;;;5091987;28;20723;-77
2022/10/05 06:13:13;;;;;;;14.63;2.40;;;16.70;99.90;;;;;;5092049;28;20239;-76
2022/10/05 06:15:46;;;;;;;11.32;2.45;;;16.80;99.90;;;;;;5074888;28;20224;-76
2022/10/05 06:18:21;;;;;;;10.88;2.22;;;16.80;99.90;;;;;;5078730;28;20619;-75
2022/10/05 06:20:58;;;;;;;13.85;2.47;;;16.80;99.90;;;;;;5102615;28;20195;-75
2022/10/05 06:23:37;;;;;;;14.05;3.13;;;16.90;99.90;;;;;;5095520;28;20190;-75
2022/10/05 06:26:34;;;;;;;10.02;2.28;;;17.00;99.90;;;;;;5091776;28;20203;-75
2022/10/05 06:29:11;;;;;;;13.20;2.65;;;16.80;99.90;;;;;;5087841;28;20283;-76
2022/10/05 06:32:03;;;;;;;15.50;2.60;;;16.80;99.90;;;;;;5087981;28;20231;-75
2022/10/05 06:34:58;;;;;;;15.43;2.83;;;16.80;99.90;;;;;;5088556;28;20199;-75
2022/10/05 06:37:43;;;;;;;16.23;2.78;;;16.80;99.90;;;;;;5091477;28;20554;-75
2022/10/05 06:40:29;;;;;;;11.23;2.83;;;16.80;99.90;;;;;;5091875;28;20195;-75
2022/10/05 06:43:14;;;;;;;19.45;2.42;;;16.80;99.90;;;;;;5089931;28;20204;-76
2022/10/05 06:46:02;;;;;;;19.42;2.20;;;16.80;99.90;;;;;;5084720;28;20192;-75
2022/10/05 06:48:44;;;;;;;14.15;2.42;;;16.80;99.90;;;;;;5081107;28;20188;-76
2022/10/05 06:51:25;;;;;;;15.55;2.28;;;16.80;99.90;;;;;;5084669;28;20562;-76
2022/10/05 06:54:04;;;;;;;17.35;2.90;;;16.80;99.90;;;;;;5084375;28;20203;-77
2022/10/05 06:56:40;;;;;;;14.85;2.80;;;16.80;99.90;;;;;;5090008;28;20198;-76
2022/10/05 06:59:16;;;;;;;13.45;2.35;;;16.80;99.90;;;;;;5088942;28;20566;-76
2022/10/05 07:01:56;;;;;;;9.23;1.77;;;16.70;99.90;;;;;;5087116;28;20569;-75
2022/10/05 07:04:51;;;;;;;11.07;1.98;;;16.70;99.90;;;;;;5083156;28;20612;-77
2022/10/05 07:07:32;;;;;;;10.15;2.00;;;16.70;99.90;;;;;;5071725;28;20283;-76
2022/10/05 07:10:18;;;;;;;17.67;2.90;;;16.70;99.90;;;;;;5086580;28;20194;-76
2022/10/05 07:13:04;;;;;;;13.77;2.50;;;16.80;99.90;;;;;;5083175;28;20246;-76
2022/10/05 07:15:46;;;;;;;13.35;2.83;;;16.70;99.90;;;;;;5087262;28;20677;-76
2022/10/05 07:18:42;;;;;;;17.98;3.20;;;16.70;99.90;;;;;;5090046;28;20229;-76
2022/10/05 07:21:21;;;;;;;17.48;2.83;;;16.70;99.90;;;;;;5090151;28;20588;-76
2022/10/05 07:24:03;;;;;;;14.88;2.60;;;16.80;99.90;;;;;;5076103;28;20244;-75
2022/10/05 07:26:41;;;;;;;15.82;3.05;;;16.70;99.90;;;;;;5091327;28;20653;-76
2022/10/05 07:29:24;;;;;;;13.85;2.97;;;16.70;99.90;;;;;;5103033;28;20226;-77
2022/10/05 07:32:07;;;;;;;18.88;2.67;;;16.60;99.90;;;;;;5075339;28;20215;-74
2022/10/05 07:34:48;;;;;;;15.85;2.58;;;16.60;99.90;;;;;;5076023;28;20571;-77
2022/10/05 07:40:20;;;;;;;15.55;2.90;;;16.60;99.90;;;;;;5080061;28;20207;-76
2022/10/05 07:43:04;;;;;;;15.98;2.75;;;16.60;99.90;;;;;;5075003;28;20654;-75
2022/10/05 07:45:41;;;;;;;13.15;2.95;;;16.70;99.90;;;;;;5078521;28;20199;-76
2022/10/05 07:48:19;;;;;;;14.88;2.60;;;16.70;99.90;;;;;;5093966;28;20286;-76
2022/10/05 07:51:06;;;;;;;13.27;2.85;;;16.70;99.90;;;;;;5074695;28;20203;-77
2022/10/05 07:53:41;;;;;;;15.10;2.67;;;16.70;99.90;;;;;;5093729;28;20202;-76
2022/10/05 07:56:22;;;;;;;17.30;2.72;;;16.70;99.90;;;;;;5093661;28;20198;-76
2022/10/05 07:59:00;;;;;;;13.25;3.22;;;16.70;99.90;;;;;;5093656;28;20227;-76
2022/10/05 08:01:35;;;;;;;19.35;3.75;;;16.70;99.90;;;;;;5096731;28;20543;-75
2022/10/05 08:04:12;;;;;;;13.93;3.25;;;16.60;99.90;;;;;;5094476;28;20195;-76
2022/10/05 08:06:49;;;;;;;15.00;3.08;;;16.60;99.90;;;;;;5090886;28;20196;-76
2022/10/05 08:09:34;;;;;;;16.92;3.08;;;16.70;99.90;;;;;;5092886;28;20642;-77
2022/10/05 08:12:30;;;;;;;13.27;2.95;;;16.60;99.90;;;;;;5100113;28;20222;-77
2022/10/05 08:15:04;;;;;;;16.88;3.13;;;16.60;99.90;;;;;;5087135;28;20245;-77
2022/10/05 08:17:47;;;;;;;13.05;2.95;;;16.50;99.90;;;;;;5093583;28;20194;-77
2022/10/05 08:20:37;;;;;;;10.75;2.20;;;16.50;99.90;;;;;;5093521;28;20272;-76
2022/10/05 08:23:17;;;;;;;12.48;2.55;;;16.60;99.90;;;;;;5092049;28;20662;-77
2022/10/05 08:25:58;;;;;;;14.27;2.78;;;16.60;99.90;;;;;;5088398;28;20191;-76
2022/10/05 08:28:36;;;;;;;15.82;2.53;;;16.60;99.90;;;;;;5093281;28;20195;-76
2022/10/05 08:31:17;;;;;;;17.23;2.85;;;16.60;99.90;;;;;;5082020;28;20196;-75
2022/10/05 08:33:59;;;;;;;11.95;2.67;;;16.70;99.90;;;;;;5094318;28;20175;-75
2022/10/05 08:36:49;;;;;;;18.52;3.63;;;16.70;99.90;;;;;;5088419;28;20227;-75
2022/10/05 08:39:24;;;;;;;15.48;2.50;;;16.60;99.90;;;;;;5081869;28;20230;-75
2022/10/05 08:42:23;;;;;;;16.75;2.65;;;16.50;99.90;;;;;;5072379;28;20203;-75
2022/10/05 08:45:31;;;;;;;13.30;2.47;;;16.50;99.90;;;;;;5091162;28;20243;-75
2022/10/05 08:48:22;;;;;;;13.32;2.22;;;16.50;99.90;;;;;;5074886;28;20199;-74
2022/10/05 08:51:30;;;;;;;11.02;2.17;;;16.50;99.90;;;;;;5047392;28;20195;-75
2022/10/05 08:54:43;;;;;;;11.55;2.35;;;16.40;99.90;;;;;;5032424;28;20199;-75
2022/10/05 08:57:42;;;;;;;12.52;2.55;;;16.50;99.90;;;;;;5092241;28;20210;-76
2022/10/05 09:00:20;;;;;;;13.85;2.30;;;16.50;99.90;;;;;;5082140;28;20229;-75
2022/10/05 09:03:23;;;;;;;15.32;2.42;;;16.60;99.90;;;;;;5084865;28;20658;-75
2022/10/05 09:06:14;;;;;;;13.25;2.70;;;16.60;99.90;;;;;;5086734;28;20676;-75
2022/10/05 09:09:12;;;;;;;11.65;2.58;;;16.60;99.90;;;;;;5089937;28;20195;-75
2022/10/05 09:11:54;;;;;;;13.75;2.72;;;16.50;99.90;;;;;;5075204;28;20651;-74
2022/10/05 09:14:47;;;;;;;17.33;2.67;;;16.50;99.90;;;;;;5091816;28;20219;-75
2022/10/05 09:17:39;;;;;;;17.90;3.33;;;16.50;99.90;;;;;;5093510;28;20191;-75
2022/10/05 09:20:32;;;;;;;13.20;2.58;;;16.60;99.90;;;;;;5105962;28;20568;-75
2022/10/05 09:23:14;;;;;;;14.00;2.58;;;16.50;99.90;;;;;;5074509;28;20200;-75
2022/10/05 09:25:57;;;;;;;11.25;2.20;;;16.60;99.90;;;;;;5090200;28;20195;-75
2022/10/05 09:28:33;;;;;;;11.63;2.30;;;16.50;99.90;;;;;;5090428;28;20198;-76
2022/10/05 09:31:27;;;;;;;13.85;1.90;;;16.50;99.90;;;;;;5087433;28;20273;-76
2022/10/05 09:34:26;;;;;;;11.02;2.00;;;16.50;99.90;;;;;;5092336;28;20222;-75
2022/10/05 09:37:55;;;;;;;11.35;2.05;;;16.40;99.90;;;;;;5091592;28;20230;-75
2022/10/05 09:41:23;;;;;;;12.38;1.88;;;16.40;99.90;;;;;;5006639;28;20234;-75
2022/10/05 09:44:32;;;;;;;12.75;2.05;;;16.40;99.90;;;;;;4956974;28;20191;-74
2022/10/05 09:47:34;;;;;;;10.75;2.47;;;16.40;99.90;;;;;;5073065;28;20670;-75
2022/10/05 09:50:47;;;;;;;15.85;2.33;;;16.50;99.90;;;;;;5083315;28;20199;-75
2022/10/05 09:53:45;;;;;;;16.02;2.50;;;16.50;99.90;;;;;;5069374;28;20207;-75
2022/10/05 09:56:35;;;;;;;10.40;2.65;;;16.50;99.90;;;;;;5090367;28;20651;-75
2022/10/05 09:59:37;;;;;;;11.10;2.55;;;16.50;99.90;;;;;;5089225;28;20228;-75
2022/10/05 10:02:29;;;;;;;13.93;2.03;;;16.60;99.90;;;;;;5090805;28;20206;-74
2022/10/05 10:05:30;;;;;;;15.00;3.05;;;16.60;99.90;;;;;;5091883;28;20647;-75
2022/10/05 10:08:30;;;;;;;16.52;2.42;;;16.60;99.90;;;;;;5079009;28;20195;-75
2022/10/05 10:11:21;;;;;;;16.90;2.58;;;16.60;99.90;;;;;;5095676;28;20188;-75
2022/10/05 10:14:26;;;;;;;12.13;2.25;;;16.60;99.90;;;;;;5088094;28;20223;-75
2022/10/05 10:17:17;;;;;;;13.23;2.60;;;16.60;99.90;;;;;;5091909;28;20195;-75
2022/10/05 10:20:08;;;;;;;12.40;2.13;;;16.60;99.90;;;;;;5087261;28;20226;-75
2022/10/05 10:23:06;;;;;;;13.60;2.33;;;16.60;99.90;;;;;;5086613;28;20713;-74
2022/10/05 10:26:20;;;;;;;16.63;3.10;;;16.60;99.90;;;;;;5083118;28;20191;-75
2022/10/05 10:29:13;;;;;;;10.50;2.35;;;16.60;99.90;;;;;;5040426;28;20209;-76
2022/10/05 10:32:06;;;;;;;13.35;3.10;;;16.70;99.90;;;;;;5081607;28;20195;-76
2022/10/05 10:35:08;;;;;;;13.93;2.30;;;16.60;99.90;;;;;;5090883;28;20195;-76
2022/10/05 10:37:58;;;;;;;16.77;2.65;;;16.70;99.90;;;;;;5086834;28;20202;-76
2022/10/05 10:40:39;;;;;;;9.50;2.35;;;16.70;99.90;;;;;;5090494;28;20665;-76
2022/10/05 10:43:40;;;;;;;15.05;2.33;;;16.70;99.90;;;;;;5093132;28;20205;-76
2022/10/05 10:46:28;;;;;;;14.55;2.35;;;16.70;99.90;;;;;;5090947;28;20203;-76
2022/10/05 10:49:14;;;;;;;11.10;2.38;;;16.70;99.90;;;;;;5084707;28;20191;-76
2022/10/05 10:52:21;;;;;;;11.88;2.17;;;16.70;99.90;;;;;;5091246;28;20679;-75
2022/10/05 10:55:39;;;;;;;14.75;2.58;;;16.70;99.90;;;;;;5024518;28;20201;-76
2022/10/05 10:58:49;;;;;;;13.52;3.00;;;16.70;99.90;;;;;;5056667;28;20203;-76
2022/10/05 11:01:34;;;;;;;14.85;2.38;;;16.70;99.90;;;;;;5079135;28;20195;-76
2022/10/05 11:04:39;;;;;;;11.55;1.98;;;16.70;99.90;;;;;;5082606;28;20204;-76
2022/10/05 11:11:17;;;;;;;10.70;2.47;;;16.70;99.90;;;;;;5098419;28;20199;-74
2022/10/05 11:14:13;;;;;;;14.20;2.50;;;16.70;99.90;;;;;;5056334;28;20665;-75
2022/10/05 11:17:21;;;;;;;15.63;2.38;;;16.80;99.90;;;;;;5096675;28;20187;-75
2022/10/05 11:20:22;;;;;;;11.80;2.53;;;16.70;99.90;;;;;;5091154;28;20234;-76
2022/10/05 11:23:00;;;;;;;12.77;2.40;;;16.70;99.90;;;;;;5098015;28;20223;-75
2022/10/05 11:26:07;;;;;;;10.63;2.22;;;16.60;99.90;;;;;;5095543;28;20288;-77
2022/10/05 11:28:56;;;;;;;14.07;2.33;;;16.60;99.90;;;;;;5090496;28;20197;-77
2022/10/05 11:31:42;;;;;;;16.52;3.35;;;16.70;99.90;;;;;;5095303;28;20611;-75
2022/10/05 11:34:41;;;;;;;16.98;2.55;;;16.70;99.90;;;;;;5093202;28;20195;-75
2022/10/05 11:37:49;;;;;;;12.32;2.08;;;16.70;99.90;;;;;;5091474;28;20259;-75
2022/10/05 11:41:01;;;;;;;12.43;2.38;;;16.80;99.90;;;;;;5092025;28;20643;-76
2022/10/05 11:44:00;;;;;;;15.00;2.20;;;16.80;99.90;;;;;;5071876;28;20584;-77
2022/10/05 11:46:37;;;;;;;14.18;2.40;;;16.70;99.90;;;;;;5095775;28;20223;-75
2022/10/05 11:49:31;;;;;;;13.70;2.30;;;16.80;99.90;;;;;;5096422;27;20183;-76
2022/10/05 11:52:12;;;;;;;14.90;2.38;;;16.70;99.90;;;;;;5092583;28;20300;-76
2022/10/05 11:55:34;;;;;;;;;;;;;;;;;;;;;
2022/10/05 11:58:12;;;;;;;16.85;2.63;;;16.80;99.90;;;;;;5079598;28;20727;-77
2022/10/05 12:00:57;;;;;;;11.95;1.92;;;16.80;99.90;;;;;;5094682;28;20229;-73
2022/10/05 12:03:53;;;;;;;15.18;2.50;;;16.80;99.90;;;;;;5091222;28;20199;-76
2022/10/05 12:06:48;;;;;;;16.42;2.30;;;16.70;99.90;;;;;;5088302;28;20195;-76
2022/10/05 12:10:12;;;;;;;15.10;2.30;;;16.80;99.90;;;;;;5096767;28;20179;-75
2022/10/05 12:12:43;;;;;;;15.13;2.65;;;16.60;99.90;;;;;;5078314;28;20219;-75
2022/10/05 12:15:25;;;;;;;11.48;2.05;;;16.60;99.90;;;;;;5089309;28;20233;-75
2022/10/05 12:18:07;;;;;;;9.38;2.33;;;16.60;99.90;;;;;;5097194;28;20183;-76
2022/10/05 12:20:45;;;;;;;13.00;2.22;;;16.60;99.90;;;;;;5084171;28;20262;-76
2022/10/05 12:23:26;;;;;;;13.60;2.63;;;16.70;99.90;;;;;;5082571;28;20593;-77
2022/10/05 12:26:04;;;;;;;9.25;1.80;;;16.70;99.90;;;;;;5096881;28;20258;-76
2022/10/05 12:28:39;;;;;;;12.38;2.13;;;16.60;99.90;;;;;;5077256;28;20203;-76
2022/10/05 12:31:37;;;;;;;12.48;2.33;;;16.60;99.90;;;;;;5094268;28;20191;-76
2022/10/05 12:34:18;;;;;;;10.00;1.92;;;16.60;99.90;;;;;;5097844;28;20217;-74
2022/10/05 12:36:56;;;;;;;10.32;1.70;;;16.60;99.90;;;;;;5097118;28;20199;-76
2022/10/05 12:39:39;;;;;;;15.45;2.22;;;16.50;99.90;;;;;;5094690;28;20227;-76
2022/10/05 12:42:22;;;;;;;11.48;1.90;;;16.60;99.90;;;;;;5099220;28;20192;-76
2022/10/05 12:45:22;;;;;;;15.98;2.83;;;16.50;99.90;;;;;;5100561;28;20210;-77
2022/10/05 12:48:09;;;;;;;16.08;2.50;;;16.60;99.90;;;;;;5078500;28;20601;-77
2022/10/05 12:50:45;;;;;;;11.48;2.00;;;16.50;99.90;;;;;;5083460;28;20220;-76
2022/10/05 12:53:29;;;;;;;10.10;1.90;;;16.50;99.90;;;;;;5083959;28;20678;-76
2022/10/05 12:56:11;;;;;;;12.07;1.98;;;16.40;99.90;;;;;;5100915;28;20215;-77
2022/10/05 12:58:53;;;;;;;15.02;2.80;;;16.40;99.90;;;;;;5074361;28;20211;-77
2022/10/05 13:01:35;;;;;;;14.90;2.65;;;16.40;99.90;;;;;;5087631;28;20311;-77
2022/10/05 13:04:19;;;;;;;16.33;2.03;;;16.50;99.90;;;;;;5072526;28;20196;-76
2022/10/05 13:06:59;;;;;;;14.85;2.38;;;16.50;99.90;;;;;;5090650;28;20282;-76
2022/10/05 13:09:39;;;;;;;17.20;2.47;;;16.50;99.90;;;;;;5090010;28;20195;-77
2022/10/05 13:12:19;;;;;;;16.65;2.50;;;16.50;99.90;;;;;;5085491;28;20637;-78
2022/10/05 13:15:01;;;;;;;14.50;2.13;;;16.50;99.90;;;;;;5097623;28;20195;-77
2022/10/05 13:17:50;;;;;;;15.00;2.17;;;16.50;99.90;;;;;;5094977;28;20718;-77
2022/10/05 13:20:27;;;;;;;16.13;2.30;;;16.60;99.90;;;;;;5094829;28;20241;-77
2022/10/05 13:23:03;;;;;;;14.00;2.20;;;16.60;99.90;;;;;;5096692;28;20191;-77
2022/10/05 13:25:38;;;;;;;15.45;1.98;;;16.50;99.90;;;;;;5086561;28;20219;-76
2022/10/05 13:28:18;;;;;;;11.93;2.00;;;16.50;99.90;;;;;;5093279;28;20199;-74
2022/10/05 13:30:58;;;;;;;16.15;2.45;;;16.50;99.90;;;;;;5091270;28;20571;-76
2022/10/05 13:33:49;;;;;;;13.15;2.47;;;16.50;99.90;;;;;;5092741;28;20278;-76
2022/10/05 13:36:30;;;;;;;11.00;2.42;;;16.50;99.90;;;;;;5082432;28;20200;-77
2022/10/05 13:39:06;;;;;;;13.02;2.20;;;16.60;99.90;;;;;;5088688;28;20195;-76
2022/10/05 13:41:47;;;;;;;11.65;2.40;;;16.50;99.90;;;;;;5091541;28;20227;-77
2022/10/05 13:44:25;;;;;;;8.25;1.77;;;16.50;99.90;;;;;;5095993;28;20199;-77
2022/10/05 13:47:02;;;;;;;9.25;2.22;;;16.60;99.90;;;;;;5093940;28;20192;-76
2022/10/05 13:49:40;;;;;;;15.20;2.60;;;16.60;99.90;;;;;;5082370;28;20192;-76
2022/10/05 13:52:22;;;;;;;15.15;2.33;;;16.50;99.90;;;;;;5089440;28;20191;-76
2022/10/05 13:54:59;;;;;;;10.82;2.00;;;16.50;99.90;;;;;;5083947;28;20196;-77
2022/10/05 13:57:51;;;;;;;13.90;2.15;;;16.50;99.90;;;;;;5082518;28;20282;-77
2022/10/05 14:00:25;;;;;;;12.35;2.50;;;16.50;99.90;;;;;;5103257;28;20666;-76
2022/10/05 14:02:57;;;;;;;17.65;2.90;;;16.60;99.90;;;;;;5091772;28;20547;-76
2022/10/05 14:05:29;;;;;;;20.30;2.72;;;16.60;99.90;;;;;;5090919;28;20234;-76
2022/10/05 14:08:13;;;;;;;13.88;3.08;;;16.60;99.90;;;;;;5090770;28;20192;-76
2022/10/05 14:10:45;;;;;;;13.63;2.40;;;16.50;99.90;;;;;;5085214;28;20208;-77
2022/10/05 14:13:25;;;;;;;14.10;2.10;;;16.60;99.90;;;;;;5081085;28;20276;-77
2022/10/05 14:16:16;;;;;;;16.63;2.53;;;16.60;99.90;;;;;;5089320;28;20203;-76